sensor_id;sensor_type;location;lat;lon;timestamp;P1;durP1;ratioP1;P2;durP2;ratioP2
47225;SDS011;32965;64.142;-21.912;2022-11-20T00:00:49;0.50;;;0.10;;
47225;SDS011;32965;64.142;-21.912;2022-11-20T00:03:14;6.40;;;0.65;;
47225;SDS011;32965;64.142;-21.912;2022-11-20T00:05:40;4.20;;;0.47;;
47225;SDS011;32965;64.142;-21.912;2022-11-20T00:08:06;3.00;;;0.52;;
47225;SDS011;32965;64.142;-21.912;2022-11-20T00:10:31;3.38;;;0.40;;
47225;SDS011;32965;64.142;-21.912;2022-11-20T00:12:58;5.85;;;0.70;;
47225;SDS011;32965;64.142;-21.912;2022-11-20T00:15:23;5.25;;;0.80;;
47225;SDS011;32965;64.142;-21.912;2022-11-20T00:17:49;5.97;;;1.02;;
47225;SDS011;32965;64.142;-21.912;2022-11-20T00:20:15;3.55;;;1.23;;
47225;SDS011;32965;64.142;-21.912;2022-11-20T00:22:41;4.13;;;1.20;;
47225;SDS011;32965;64.142;-21.912;2022-11-20T00:25:07;5.63;;;1.25;;
47225;SDS011;32965;64.142;-21.912;2022-11-20T00:27:32;5.85;;;1.33;;
47225;SDS011;32965;64.142;-21.912;2022-11-20T00:29:58;6.32;;;1.55;;
47225;SDS011;32965;64.142;-21.912;2022-11-20T00:32:24;8.15;;;1.20;;
47225;SDS011;32965;64.142;-21.912;2022-11-20T00:34:49;3.88;;;1.08;;
47225;SDS011;32965;64.142;-21.912;2022-11-20T00:37:15;6.63;;;1.88;;
47225;SDS011;32965;64.142;-21.912;2022-11-20T00:39:41;8.45;;;2.05;;
47225;SDS011;32965;64.142;-21.912;2022-11-20T00:42:07;7.90;;;1.95;;
47225;SDS011;32965;64.142;-21.912;2022-11-20T00:44:32;12.27;;;1.77;;
47225;SDS011;32965;64.142;-21.912;2022-11-20T00:46:58;5.88;;;1.65;;
47225;SDS011;32965;64.142;-21.912;2022-11-20T00:49:24;9.63;;;2.47;;
47225;SDS011;32965;64.142;-21.912;2022-11-20T00:51:49;7.68;;;1.77;;
47225;SDS011;32965;64.142;-21.912;2022-11-20T00:54:15;14.73;;;2.95;;
47225;SDS011;32965;64.142;-21.912;2022-11-20T00:56:41;11.38;;;2.75;;
47225;SDS011;32965;64.142;-21.912;2022-11-20T00:59:08;8.10;;;1.75;;
47225;SDS011;32965;64.142;-21.912;2022-11-20T01:01:35;10.38;;;1.98;;
47225;SDS011;32965;64.142;-21.912;2022-11-20T01:04:02;8.52;;;2.15;;
47225;SDS011;32965;64.142;-21.912;2022-11-20T01:06:32;10.40;;;2.30;;
47225;SDS011;32965;64.142;-21.912;2022-11-20T01:09:00;7.93;;;1.80;;
47225;SDS011;32965;64.142;-21.912;2022-11-20T01:11:32;7.03;;;2.13;;
47225;SDS011;32965;64.142;-21.912;2022-11-20T01:14:01;7.15;;;2.30;;
47225;SDS011;32965;64.142;-21.912;2022-11-20T01:16:35;6.40;;;1.73;;
47225;SDS011;32965;64.142;-21.912;2022-11-20T01:19:03;8.07;;;1.92;;
47225;SDS011;32965;64.142;-21.912;2022-11-20T01:21:32;7.00;;;1.77;;
47225;SDS011;32965;64.142;-21.912;2022-11-20T01:23:59;8.35;;;1.95;;
47225;SDS011;32965;64.142;-21.912;2022-11-20T01:26:27;6.82;;;1.60;;
47225;SDS011;32965;64.142;-21.912;2022-11-20T01:28:56;6.35;;;1.67;;
47225;SDS011;32965;64.142;-21.912;2022-11-20T01:31:27;8.15;;;1.77;;
47225;SDS011;32965;64.142;-21.912;2022-11-20T01:33:58;8.75;;;2.08;;
47225;SDS011;32965;64.142;-21.912;2022-11-20T01:36:26;9.18;;;1.85;;
47225;SDS011;32965;64.142;-21.912;2022-11-20T01:38:54;11.77;;;1.65;;
47225;SDS011;32965;64.142;-21.912;2022-11-20T01:41:23;8.57;;;2.20;;
47225;SDS011;32965;64.142;-21.912;2022-11-20T01:44:10;12.48;;;2.50;;
47225;SDS011;32965;64.142;-21.912;2022-11-20T01:46:40;12.85;;;1.90;;
47225;SDS011;32965;64.142;-21.912;2022-11-20T01:49:16;17.05;;;3.20;;
47225;SDS011;32965;64.142;-21.912;2022-11-20T01:51:50;12.05;;;2.65;;
47225;SDS011;32965;64.142;-21.912;2022-11-20T01:54:23;13.68;;;1.90;;
47225;SDS011;32965;64.142;-21.912;2022-11-20T01:56:56;8.45;;;2.03;;
47225;SDS011;32965;64.142;-21.912;2022-11-20T01:59:23;7.90;;;1.90;;
47225;SDS011;32965;64.142;-21.912;2022-11-20T02:01:51;12.20;;;2.40;;
47225;SDS011;32965;64.142;-21.912;2022-11-20T02:04:18;12.63;;;2.13;;
47225;SDS011;32965;64.142;-21.912;2022-11-20T02:06:49;10.57;;;1.70;;
47225;SDS011;32965;64.142;-21.912;2022-11-20T02:09:18;7.45;;;2.10;;
47225;SDS011;32965;64.142;-21.912;2022-11-20T02:11:44;14.60;;;1.92;;
47225;SDS011;32965;64.142;-21.912;2022-11-20T02:14:10;15.00;;;2.20;;
47225;SDS011;32965;64.142;-21.912;2022-11-20T02:16:37;14.30;;;2.00;;
47225;SDS011;32965;64.142;-21.912;2022-11-20T02:19:06;8.30;;;1.88;;
47225;SDS011;32965;64.142;-21.912;2022-11-20T02:22:39;7.13;;;1.67;;
47225;SDS011;32965;64.142;-21.912;2022-11-20T02:24:37;7.78;;;1.60;;
47225;SDS011;32965;64.142;-21.912;2022-11-20T02:27:04;8.00;;;1.92;;
47225;SDS011;32965;64.142;-21.912;2022-11-20T02:29:36;10.85;;;2.65;;
47225;SDS011;32965;64.142;-21.912;2022-11-20T02:32:06;8.75;;;1.90;;
47225;SDS011;32965;64.142;-21.912;2022-11-20T02:34:42;11.60;;;2.42;;
47225;SDS011;32965;64.142;-21.912;2022-11-20T02:37:08;7.35;;;2.10;;
47225;SDS011;32965;64.142;-21.912;2022-11-20T02:39:33;9.77;;;1.95;;
47225;SDS011;32965;64.142;-21.912;2022-11-20T02:42:00;8.48;;;1.83;;
47225;SDS011;32965;64.142;-21.912;2022-11-20T02:44:26;7.80;;;1.88;;
47225;SDS011;32965;64.142;-21.912;2022-11-20T02:46:51;15.13;;;2.60;;
47225;SDS011;32965;64.142;-21.912;2022-11-20T02:49:17;12.43;;;2.42;;
47225;SDS011;32965;64.142;-21.912;2022-11-20T02:51:43;9.77;;;2.60;;
47225;SDS011;32965;64.142;-21.912;2022-11-20T02:54:09;11.43;;;2.25;;
47225;SDS011;32965;64.142;-21.912;2022-11-20T02:56:37;11.18;;;2.97;;
47225;SDS011;32965;64.142;-21.912;2022-11-20T02:59:03;12.50;;;2.65;;
47225;SDS011;32965;64.142;-21.912;2022-11-20T03:01:29;15.90;;;3.08;;
47225;SDS011;32965;64.142;-21.912;2022-11-20T03:03:55;14.63;;;2.33;;
47225;SDS011;32965;64.142;-21.912;2022-11-20T03:06:21;11.00;;;2.28;;
47225;SDS011;32965;64.142;-21.912;2022-11-20T03:08:47;13.73;;;2.63;;
47225;SDS011;32965;64.142;-21.912;2022-11-20T03:11:12;10.80;;;2.55;;
47225;SDS011;32965;64.142;-21.912;2022-11-20T03:13:38;10.60;;;2.10;;
47225;SDS011;32965;64.142;-21.912;2022-11-20T03:16:05;8.27;;;2.00;;
47225;SDS011;32965;64.142;-21.912;2022-11-20T03:18:35;11.30;;;2.83;;
47225;SDS011;32965;64.142;-21.912;2022-11-20T03:21:00;11.02;;;2.28;;
47225;SDS011;32965;64.142;-21.912;2022-11-20T03:23:28;8.55;;;1.98;;
47225;SDS011;32965;64.142;-21.912;2022-11-20T03:25:55;12.07;;;2.33;;
47225;SDS011;32965;64.142;-21.912;2022-11-20T03:28:21;9.13;;;1.88;;
47225;SDS011;32965;64.142;-21.912;2022-11-20T03:30:47;9.02;;;2.00;;
47225;SDS011;32965;64.142;-21.912;2022-11-20T03:33:12;8.38;;;1.88;;
47225;SDS011;32965;64.142;-21.912;2022-11-20T03:35:38;8.02;;;2.10;;
47225;SDS011;32965;64.142;-21.912;2022-11-20T03:38:04;9.60;;;1.73;;
47225;SDS011;32965;64.142;-21.912;2022-11-20T03:40:30;8.57;;;1.52;;
47225;SDS011;32965;64.142;-21.912;2022-11-20T03:42:55;10.18;;;1.77;;
47225;SDS011;32965;64.142;-21.912;2022-11-20T03:45:21;6.30;;;1.65;;
47225;SDS011;32965;64.142;-21.912;2022-11-20T03:47:47;11.82;;;2.30;;
47225;SDS011;32965;64.142;-21.912;2022-11-20T03:50:13;8.93;;;1.65;;
47225;SDS011;32965;64.142;-21.912;2022-11-20T03:52:39;6.30;;;1.15;;
47225;SDS011;32965;64.142;-21.912;2022-11-20T03:55:05;11.68;;;1.98;;
47225;SDS011;32965;64.142;-21.912;2022-11-20T03:57:31;8.98;;;1.98;;
47225;SDS011;32965;64.142;-21.912;2022-11-20T03:59:57;10.48;;;2.47;;
47225;SDS011;32965;64.142;-21.912;2022-11-20T04:02:23;9.95;;;1.88;;
47225;SDS011;32965;64.142;-21.912;2022-11-20T04:04:49;12.57;;;2.15;;
47225;SDS011;32965;64.142;-21.912;2022-11-20T04:07:14;10.70;;;2.25;;
47225;SDS011;32965;64.142;-21.912;2022-11-20T04:09:40;11.20;;;2.38;;
47225;SDS011;32965;64.142;-21.912;2022-11-20T04:12:06;12.48;;;2.00;;
47225;SDS011;32965;64.142;-21.912;2022-11-20T04:14:31;11.50;;;3.08;;
47225;SDS011;32965;64.142;-21.912;2022-11-20T04:16:57;12.50;;;2.00;;
47225;SDS011;32965;64.142;-21.912;2022-11-20T04:19:23;9.93;;;2.15;;
47225;SDS011;32965;64.142;-21.912;2022-11-20T04:21:48;8.40;;;2.50;;
47225;SDS011;32965;64.142;-21.912;2022-11-20T04:24:14;10.60;;;2.13;;
47225;SDS011;32965;64.142;-21.912;2022-11-20T04:26:40;8.95;;;2.65;;
47225;SDS011;32965;64.142;-21.912;2022-11-20T04:29:05;11.25;;;2.63;;
47225;SDS011;32965;64.142;-21.912;2022-11-20T04:31:32;12.20;;;2.38;;
47225;SDS011;32965;64.142;-21.912;2022-11-20T04:34:00;12.68;;;2.67;;
47225;SDS011;32965;64.142;-21.912;2022-11-20T04:36:27;12.50;;;2.10;;
47225;SDS011;32965;64.142;-21.912;2022-11-20T04:38:54;11.18;;;2.17;;
47225;SDS011;32965;64.142;-21.912;2022-11-20T04:41:28;12.90;;;2.25;;
47225;SDS011;32965;64.142;-21.912;2022-11-20T04:43:57;14.10;;;2.53;;
47225;SDS011;32965;64.142;-21.912;2022-11-20T04:46:27;14.93;;;2.20;;
47225;SDS011;32965;64.142;-21.912;2022-11-20T04:48:54;5.57;;;1.90;;
47225;SDS011;32965;64.142;-21.912;2022-11-20T04:51:20;10.32;;;1.90;;
47225;SDS011;32965;64.142;-21.912;2022-11-20T04:53:46;16.80;;;2.58;;
47225;SDS011;32965;64.142;-21.912;2022-11-20T04:56:12;14.85;;;2.58;;
47225;SDS011;32965;64.142;-21.912;2022-11-20T04:58:39;10.98;;;2.42;;
47225;SDS011;32965;64.142;-21.912;2022-11-20T05:03:38;12.23;;;1.92;;
47225;SDS011;32965;64.142;-21.912;2022-11-20T05:06:05;11.25;;;2.08;;
47225;SDS011;32965;64.142;-21.912;2022-11-20T05:08:32;10.27;;;2.08;;
47225;SDS011;32965;64.142;-21.912;2022-11-20T05:11:05;11.13;;;2.55;;
47225;SDS011;32965;64.142;-21.912;2022-11-20T05:13:30;10.25;;;2.13;;
47225;SDS011;32965;64.142;-21.912;2022-11-20T05:16:07;13.55;;;2.67;;
47225;SDS011;32965;64.142;-21.912;2022-11-20T05:18:34;9.52;;;2.20;;
47225;SDS011;32965;64.142;-21.912;2022-11-20T05:21:01;10.85;;;2.75;;
47225;SDS011;32965;64.142;-21.912;2022-11-20T05:23:27;10.70;;;2.22;;
47225;SDS011;32965;64.142;-21.912;2022-11-20T05:25:54;12.27;;;2.42;;
47225;SDS011;32965;64.142;-21.912;2022-11-20T05:28:20;7.30;;;2.50;;
47225;SDS011;32965;64.142;-21.912;2022-11-20T05:30:47;13.70;;;2.55;;
47225;SDS011;32965;64.142;-21.912;2022-11-20T05:33:13;9.75;;;1.88;;
47225;SDS011;32965;64.142;-21.912;2022-11-20T05:35:39;9.85;;;2.10;;
47225;SDS011;32965;64.142;-21.912;2022-11-20T05:38:04;9.85;;;1.60;;
47225;SDS011;32965;64.142;-21.912;2022-11-20T05:40:30;10.05;;;1.98;;
47225;SDS011;32965;64.142;-21.912;2022-11-20T05:42:56;6.65;;;1.58;;
47225;SDS011;32965;64.142;-21.912;2022-11-20T05:45:21;9.98;;;1.55;;
47225;SDS011;32965;64.142;-21.912;2022-11-20T05:47:47;8.30;;;1.55;;
47225;SDS011;32965;64.142;-21.912;2022-11-20T05:50:13;6.57;;;1.40;;
47225;SDS011;32965;64.142;-21.912;2022-11-20T05:52:40;6.00;;;1.20;;
47225;SDS011;32965;64.142;-21.912;2022-11-20T05:55:06;6.93;;;0.80;;
47225;SDS011;32965;64.142;-21.912;2022-11-20T05:57:32;5.07;;;1.20;;
47225;SDS011;32965;64.142;-21.912;2022-11-20T05:59:58;5.35;;;1.65;;
47225;SDS011;32965;64.142;-21.912;2022-11-20T06:02:23;2.97;;;1.25;;
47225;SDS011;32965;64.142;-21.912;2022-11-20T06:04:49;4.82;;;1.48;;
47225;SDS011;32965;64.142;-21.912;2022-11-20T06:07:15;12.10;;;1.52;;
47225;SDS011;32965;64.142;-21.912;2022-11-20T06:09:41;8.55;;;1.63;;
47225;SDS011;32965;64.142;-21.912;2022-11-20T06:12:06;6.50;;;1.25;;
47225;SDS011;32965;64.142;-21.912;2022-11-20T06:14:32;7.43;;;1.40;;
47225;SDS011;32965;64.142;-21.912;2022-11-20T06:16:58;10.18;;;2.53;;
47225;SDS011;32965;64.142;-21.912;2022-11-20T06:19:24;9.23;;;2.03;;
47225;SDS011;32965;64.142;-21.912;2022-11-20T06:21:50;10.93;;;2.15;;
47225;SDS011;32965;64.142;-21.912;2022-11-20T06:24:16;12.15;;;1.77;;
47225;SDS011;32965;64.142;-21.912;2022-11-20T06:26:41;9.98;;;1.90;;
47225;SDS011;32965;64.142;-21.912;2022-11-20T06:29:07;11.98;;;2.25;;
47225;SDS011;32965;64.142;-21.912;2022-11-20T06:31:33;8.20;;;1.45;;
47225;SDS011;32965;64.142;-21.912;2022-11-20T06:34:02;9.75;;;1.60;;
47225;SDS011;32965;64.142;-21.912;2022-11-20T06:36:32;9.50;;;1.70;;
47225;SDS011;32965;64.142;-21.912;2022-11-20T06:38:58;7.47;;;1.13;;
47225;SDS011;32965;64.142;-21.912;2022-11-20T06:41:24;10.13;;;1.42;;
47225;SDS011;32965;64.142;-21.912;2022-11-20T06:43:50;9.85;;;1.38;;
47225;SDS011;32965;64.142;-21.912;2022-11-20T06:46:17;6.75;;;0.90;;
47225;SDS011;32965;64.142;-21.912;2022-11-20T06:48:44;3.97;;;0.93;;
47225;SDS011;32965;64.142;-21.912;2022-11-20T06:51:10;4.53;;;1.02;;
47225;SDS011;32965;64.142;-21.912;2022-11-20T06:53:37;7.25;;;1.40;;
47225;SDS011;32965;64.142;-21.912;2022-11-20T06:56:03;3.65;;;1.05;;
47225;SDS011;32965;64.142;-21.912;2022-11-20T06:58:30;2.08;;;0.80;;
47225;SDS011;32965;64.142;-21.912;2022-11-20T07:00:58;2.85;;;0.50;;
47225;SDS011;32965;64.142;-21.912;2022-11-20T07:03:24;5.95;;;1.20;;
47225;SDS011;32965;64.142;-21.912;2022-11-20T07:05:50;3.03;;;0.90;;
47225;SDS011;32965;64.142;-21.912;2022-11-20T07:08:16;3.45;;;1.08;;
47225;SDS011;32965;64.142;-21.912;2022-11-20T07:10:42;6.05;;;1.13;;
47225;SDS011;32965;64.142;-21.912;2022-11-20T07:13:07;7.13;;;1.25;;
47225;SDS011;32965;64.142;-21.912;2022-11-20T07:15:33;5.65;;;1.13;;
47225;SDS011;32965;64.142;-21.912;2022-11-20T07:17:59;9.00;;;1.27;;
47225;SDS011;32965;64.142;-21.912;2022-11-20T07:20:25;4.88;;;1.15;;
47225;SDS011;32965;64.142;-21.912;2022-11-20T07:22:57;6.30;;;1.33;;
47225;SDS011;32965;64.142;-21.912;2022-11-20T07:25:24;7.60;;;1.17;;
47225;SDS011;32965;64.142;-21.912;2022-11-20T07:27:50;4.97;;;0.82;;
47225;SDS011;32965;64.142;-21.912;2022-11-20T07:30:17;6.28;;;1.20;;
47225;SDS011;32965;64.142;-21.912;2022-11-20T07:32:46;5.15;;;1.17;;
47225;SDS011;32965;64.142;-21.912;2022-11-20T07:35:13;7.82;;;1.02;;
47225;SDS011;32965;64.142;-21.912;2022-11-20T07:37:39;3.92;;;0.65;;
47225;SDS011;32965;64.142;-21.912;2022-11-20T07:40:04;8.75;;;1.00;;
47225;SDS011;32965;64.142;-21.912;2022-11-20T07:42:30;6.82;;;1.38;;
47225;SDS011;32965;64.142;-21.912;2022-11-20T07:44:56;6.88;;;1.20;;
47225;SDS011;32965;64.142;-21.912;2022-11-20T07:47:22;3.45;;;0.80;;
47225;SDS011;32965;64.142;-21.912;2022-11-20T07:49:47;5.07;;;0.57;;
47225;SDS011;32965;64.142;-21.912;2022-11-20T07:52:13;9.35;;;1.13;;
47225;SDS011;32965;64.142;-21.912;2022-11-20T07:54:39;4.70;;;0.77;;
47225;SDS011;32965;64.142;-21.912;2022-11-20T07:57:04;4.95;;;1.10;;
47225;SDS011;32965;64.142;-21.912;2022-11-20T07:59:30;6.05;;;1.30;;
47225;SDS011;32965;64.142;-21.912;2022-11-20T08:01:56;3.53;;;0.70;;
47225;SDS011;32965;64.142;-21.912;2022-11-20T08:04:21;3.85;;;0.80;;
47225;SDS011;32965;64.142;-21.912;2022-11-20T08:06:48;3.50;;;0.80;;
47225;SDS011;32965;64.142;-21.912;2022-11-20T08:09:14;5.03;;;1.33;;
47225;SDS011;32965;64.142;-21.912;2022-11-20T08:11:39;3.78;;;0.68;;
47225;SDS011;32965;64.142;-21.912;2022-11-20T08:14:37;7.05;;;0.90;;
47225;SDS011;32965;64.142;-21.912;2022-11-20T08:17:03;7.07;;;1.10;;
47225;SDS011;32965;64.142;-21.912;2022-11-20T08:19:28;7.47;;;1.20;;
47225;SDS011;32965;64.142;-21.912;2022-11-20T08:21:54;10.77;;;1.45;;
47225;SDS011;32965;64.142;-21.912;2022-11-20T08:24:20;7.20;;;1.33;;
47225;SDS011;32965;64.142;-21.912;2022-11-20T08:26:46;5.43;;;1.23;;
47225;SDS011;32965;64.142;-21.912;2022-11-20T08:29:11;7.05;;;1.13;;
47225;SDS011;32965;64.142;-21.912;2022-11-20T08:31:37;6.28;;;1.17;;
47225;SDS011;32965;64.142;-21.912;2022-11-20T08:34:03;4.43;;;1.23;;
47225;SDS011;32965;64.142;-21.912;2022-11-20T08:36:32;6.82;;;1.40;;
47225;SDS011;32965;64.142;-21.912;2022-11-20T08:38:59;5.70;;;1.15;;
47225;SDS011;32965;64.142;-21.912;2022-11-20T08:41:25;5.20;;;1.45;;
47225;SDS011;32965;64.142;-21.912;2022-11-20T08:43:58;6.90;;;1.50;;
47225;SDS011;32965;64.142;-21.912;2022-11-20T08:46:26;4.60;;;0.95;;
47225;SDS011;32965;64.142;-21.912;2022-11-20T08:48:55;6.70;;;1.52;;
47225;SDS011;32965;64.142;-21.912;2022-11-20T08:51:21;5.93;;;0.82;;
47225;SDS011;32965;64.142;-21.912;2022-11-20T08:53:47;3.33;;;0.50;;
47225;SDS011;32965;64.142;-21.912;2022-11-20T08:56:13;5.97;;;1.27;;
47225;SDS011;32965;64.142;-21.912;2022-11-20T08:58:39;2.22;;;0.55;;
47225;SDS011;32965;64.142;-21.912;2022-11-20T09:01:05;2.65;;;0.30;;
47225;SDS011;32965;64.142;-21.912;2022-11-20T09:03:31;1.15;;;0.50;;
47225;SDS011;32965;64.142;-21.912;2022-11-20T09:05:58;2.72;;;0.45;;
47225;SDS011;32965;64.142;-21.912;2022-11-20T09:08:25;2.70;;;0.80;;
47225;SDS011;32965;64.142;-21.912;2022-11-20T09:10:51;1.65;;;0.52;;
47225;SDS011;32965;64.142;-21.912;2022-11-20T09:13:17;6.50;;;0.73;;
47225;SDS011;32965;64.142;-21.912;2022-11-20T09:15:44;3.35;;;0.50;;
47225;SDS011;32965;64.142;-21.912;2022-11-20T09:18:10;2.05;;;0.52;;
47225;SDS011;32965;64.142;-21.912;2022-11-20T09:20:35;2.33;;;0.50;;
47225;SDS011;32965;64.142;-21.912;2022-11-20T09:23:01;4.18;;;0.70;;
47225;SDS011;32965;64.142;-21.912;2022-11-20T09:25:27;7.70;;;1.77;;
47225;SDS011;32965;64.142;-21.912;2022-11-20T09:27:56;5.32;;;0.95;;
47225;SDS011;32965;64.142;-21.912;2022-11-20T09:30:23;4.45;;;0.70;;
47225;SDS011;32965;64.142;-21.912;2022-11-20T09:32:49;3.63;;;0.70;;
47225;SDS011;32965;64.142;-21.912;2022-11-20T09:35:14;7.03;;;1.35;;
47225;SDS011;32965;64.142;-21.912;2022-11-20T09:37:40;3.03;;;0.70;;
47225;SDS011;32965;64.142;-21.912;2022-11-20T09:40:06;5.63;;;1.20;;
47225;SDS011;32965;64.142;-21.912;2022-11-20T09:42:50;2.55;;;0.60;;
47225;SDS011;32965;64.142;-21.912;2022-11-20T09:45:39;3.28;;;0.80;;
47225;SDS011;32965;64.142;-21.912;2022-11-20T09:56:23;2.93;;;1.00;;
47225;SDS011;32965;64.142;-21.912;2022-11-20T09:58:51;6.00;;;1.00;;
47225;SDS011;32965;64.142;-21.912;2022-11-20T10:01:25;4.13;;;0.90;;
47225;SDS011;32965;64.142;-21.912;2022-11-20T10:06:29;4.63;;;1.10;;
47225;SDS011;32965;64.142;-21.912;2022-11-20T10:09:02;7.13;;;0.90;;
47225;SDS011;32965;64.142;-21.912;2022-11-20T10:17:10;6.70;;;1.27;;
47225;SDS011;32965;64.142;-21.912;2022-11-20T10:26:00;3.85;;;0.57;;
47225;SDS011;32965;64.142;-21.912;2022-11-20T10:30:56;1.48;;;0.60;;
47225;SDS011;32965;64.142;-21.912;2022-11-20T10:33:26;2.60;;;0.80;;
47225;SDS011;32965;64.142;-21.912;2022-11-20T10:38:36;1.70;;;0.43;;
47225;SDS011;32965;64.142;-21.912;2022-11-20T10:41:24;2.28;;;0.32;;
47225;SDS011;32965;64.142;-21.912;2022-11-20T10:47:19;0.75;;;0.28;;
47225;SDS011;32965;64.142;-21.912;2022-11-20T10:49:51;3.40;;;0.73;;
47225;SDS011;32965;64.142;-21.912;2022-11-20T11:00:20;2.30;;;0.35;;
47225;SDS011;32965;64.142;-21.912;2022-11-20T11:02:46;1.17;;;0.22;;
47225;SDS011;32965;64.142;-21.912;2022-11-20T11:07:54;1.80;;;0.38;;
47225;SDS011;32965;64.142;-21.912;2022-11-20T11:10:24;1.67;;;0.38;;
47225;SDS011;32965;64.142;-21.912;2022-11-20T11:13:00;0.68;;;0.30;;
47225;SDS011;32965;64.142;-21.912;2022-11-20T11:17:53;3.65;;;0.52;;
47225;SDS011;32965;64.142;-21.912;2022-11-20T11:20:20;2.92;;;0.40;;
47225;SDS011;32965;64.142;-21.912;2022-11-20T11:25:24;3.88;;;0.40;;
47225;SDS011;32965;64.142;-21.912;2022-11-20T11:27:55;4.15;;;0.73;;
47225;SDS011;32965;64.142;-21.912;2022-11-20T11:30:24;1.38;;;0.73;;
47225;SDS011;32965;64.142;-21.912;2022-11-20T11:33:02;2.25;;;0.50;;
47225;SDS011;32965;64.142;-21.912;2022-11-20T11:35:29;2.58;;;0.47;;
47225;SDS011;32965;64.142;-21.912;2022-11-20T11:38:02;0.68;;;0.22;;
47225;SDS011;32965;64.142;-21.912;2022-11-20T11:40:31;2.88;;;0.30;;
47225;SDS011;32965;64.142;-21.912;2022-11-20T11:43:01;2.90;;;0.50;;
47225;SDS011;32965;64.142;-21.912;2022-11-20T11:45:54;3.00;;;0.60;;
47225;SDS011;32965;64.142;-21.912;2022-11-20T11:48:21;1.75;;;0.30;;
47225;SDS011;32965;64.142;-21.912;2022-11-20T11:50:50;2.35;;;0.20;;
47225;SDS011;32965;64.142;-21.912;2022-11-20T11:53:17;0.73;;;0.20;;
47225;SDS011;32965;64.142;-21.912;2022-11-20T11:58:34;0.65;;;0.10;;
47225;SDS011;32965;64.142;-21.912;2022-11-20T12:06:39;3.17;;;0.40;;
47225;SDS011;32965;64.142;-21.912;2022-11-20T12:09:10;2.30;;;0.50;;
47225;SDS011;32965;64.142;-21.912;2022-11-20T12:14:37;2.75;;;0.82;;
47225;SDS011;32965;64.142;-21.912;2022-11-20T12:17:04;3.17;;;0.50;;
47225;SDS011;32965;64.142;-21.912;2022-11-20T12:19:30;0.73;;;0.25;;
47225;SDS011;32965;64.142;-21.912;2022-11-20T12:30:25;4.13;;;0.70;;
47225;SDS011;32965;64.142;-21.912;2022-11-20T12:33:07;2.28;;;0.43;;
47225;SDS011;32965;64.142;-21.912;2022-11-20T12:52:57;2.00;;;0.40;;
47225;SDS011;32965;64.142;-21.912;2022-11-20T12:55:49;1.88;;;0.50;;
47225;SDS011;32965;64.142;-21.912;2022-11-20T12:58:31;2.80;;;0.85;;
47225;SDS011;32965;64.142;-21.912;2022-11-20T13:01:24;3.17;;;0.68;;
47225;SDS011;32965;64.142;-21.912;2022-11-20T13:04:12;1.30;;;0.20;;
47225;SDS011;32965;64.142;-21.912;2022-11-20T13:07:05;1.02;;;0.30;;
47225;SDS011;32965;64.142;-21.912;2022-11-20T13:09:33;2.22;;;0.40;;
47225;SDS011;32965;64.142;-21.912;2022-11-20T13:14:32;1.88;;;0.50;;
47225;SDS011;32965;64.142;-21.912;2022-11-20T13:17:05;1.55;;;0.50;;
47225;SDS011;32965;64.142;-21.912;2022-11-20T13:19:52;0.88;;;0.35;;
47225;SDS011;32965;64.142;-21.912;2022-11-20T13:22:26;1.65;;;0.43;;
47225;SDS011;32965;64.142;-21.912;2022-11-20T13:24:53;4.05;;;0.60;;
47225;SDS011;32965;64.142;-21.912;2022-11-20T13:27:22;3.63;;;0.50;;
47225;SDS011;32965;64.142;-21.912;2022-11-20T13:40:27;3.45;;;0.82;;
47225;SDS011;32965;64.142;-21.912;2022-11-20T13:45:41;3.30;;;0.77;;
47225;SDS011;32965;64.142;-21.912;2022-11-20T13:49:07;4.03;;;0.90;;
47225;SDS011;32965;64.142;-21.912;2022-11-20T13:53:54;2.60;;;0.57;;
47225;SDS011;32965;64.142;-21.912;2022-11-20T14:02:26;5.70;;;0.90;;
47225;SDS011;32965;64.142;-21.912;2022-11-20T14:04:56;5.85;;;0.95;;
47225;SDS011;32965;64.142;-21.912;2022-11-20T14:09:55;4.45;;;1.15;;
47225;SDS011;32965;64.142;-21.912;2022-11-20T14:12:23;3.45;;;0.90;;
47225;SDS011;32965;64.142;-21.912;2022-11-20T14:14:56;10.82;;;1.48;;
47225;SDS011;32965;64.142;-21.912;2022-11-20T14:17:24;8.57;;;1.17;;
47225;SDS011;32965;64.142;-21.912;2022-11-20T14:20:00;5.50;;;1.10;;
47225;SDS011;32965;64.142;-21.912;2022-11-20T14:22:28;5.47;;;1.33;;
47225;SDS011;32965;64.142;-21.912;2022-11-20T14:25:02;10.27;;;1.25;;
47225;SDS011;32965;64.142;-21.912;2022-11-20T14:27:37;4.10;;;1.10;;
47225;SDS011;32965;64.142;-21.912;2022-11-20T14:30:06;6.13;;;1.30;;
47225;SDS011;32965;64.142;-21.912;2022-11-20T14:32:41;7.13;;;1.63;;
47225;SDS011;32965;64.142;-21.912;2022-11-20T14:35:09;7.03;;;1.15;;
47225;SDS011;32965;64.142;-21.912;2022-11-20T14:37:39;9.77;;;1.90;;
47225;SDS011;32965;64.142;-21.912;2022-11-20T14:42:52;6.85;;;1.52;;
47225;SDS011;32965;64.142;-21.912;2022-11-20T14:45:18;12.10;;;1.90;;
47225;SDS011;32965;64.142;-21.912;2022-11-20T14:47:45;8.82;;;1.38;;
47225;SDS011;32965;64.142;-21.912;2022-11-20T14:50:19;6.55;;;2.13;;
47225;SDS011;32965;64.142;-21.912;2022-11-20T14:53:06;9.13;;;1.65;;
47225;SDS011;32965;64.142;-21.912;2022-11-20T14:55:33;6.65;;;1.95;;
47225;SDS011;32965;64.142;-21.912;2022-11-20T14:58:01;10.60;;;2.20;;
47225;SDS011;32965;64.142;-21.912;2022-11-20T15:00:32;13.35;;;2.63;;
47225;SDS011;32965;64.142;-21.912;2022-11-20T15:02:58;10.40;;;2.70;;
47225;SDS011;32965;64.142;-21.912;2022-11-20T15:05:46;17.38;;;2.83;;
47225;SDS011;32965;64.142;-21.912;2022-11-20T15:08:12;15.93;;;3.40;;
47225;SDS011;32965;64.142;-21.912;2022-11-20T15:10:38;14.80;;;3.00;;
47225;SDS011;32965;64.142;-21.912;2022-11-20T15:13:38;12.10;;;2.45;;
47225;SDS011;32965;64.142;-21.912;2022-11-20T15:16:03;13.30;;;2.88;;
47225;SDS011;32965;64.142;-21.912;2022-11-20T15:18:41;14.40;;;2.72;;
47225;SDS011;32965;64.142;-21.912;2022-11-20T15:21:13;12.63;;;2.83;;
47225;SDS011;32965;64.142;-21.912;2022-11-20T15:23:40;12.45;;;2.83;;
47225;SDS011;32965;64.142;-21.912;2022-11-20T15:26:07;15.65;;;3.35;;
47225;SDS011;32965;64.142;-21.912;2022-11-20T15:28:35;14.50;;;2.95;;
47225;SDS011;32965;64.142;-21.912;2022-11-20T15:33:31;11.48;;;2.65;;
47225;SDS011;32965;64.142;-21.912;2022-11-20T15:35:57;15.45;;;3.33;;
47225;SDS011;32965;64.142;-21.912;2022-11-20T15:38:23;8.82;;;2.20;;
47225;SDS011;32965;64.142;-21.912;2022-11-20T15:40:49;7.50;;;2.40;;
47225;SDS011;32965;64.142;-21.912;2022-11-20T15:43:15;16.13;;;2.83;;
47225;SDS011;32965;64.142;-21.912;2022-11-20T15:48:12;9.00;;;2.42;;
47225;SDS011;32965;64.142;-21.912;2022-11-20T15:51:00;10.13;;;1.95;;
47225;SDS011;32965;64.142;-21.912;2022-11-20T15:53:27;9.73;;;1.70;;
47225;SDS011;32965;64.142;-21.912;2022-11-20T15:55:53;11.82;;;1.75;;
47225;SDS011;32965;64.142;-21.912;2022-11-20T15:58:19;15.50;;;2.05;;
47225;SDS011;32965;64.142;-21.912;2022-11-20T16:00:45;10.55;;;1.60;;
47225;SDS011;32965;64.142;-21.912;2022-11-20T16:03:14;4.45;;;1.20;;
47225;SDS011;32965;64.142;-21.912;2022-11-20T16:05:41;11.63;;;2.40;;
47225;SDS011;32965;64.142;-21.912;2022-11-20T16:08:06;6.80;;;1.45;;
47225;SDS011;32965;64.142;-21.912;2022-11-20T16:10:32;10.25;;;1.98;;
47225;SDS011;32965;64.142;-21.912;2022-11-20T16:12:58;7.22;;;1.33;;
47225;SDS011;32965;64.142;-21.912;2022-11-20T16:15:44;8.52;;;1.50;;
47225;SDS011;32965;64.142;-21.912;2022-11-20T16:18:18;7.57;;;2.25;;
47225;SDS011;32965;64.142;-21.912;2022-11-20T16:20:46;4.55;;;1.40;;
47225;SDS011;32965;64.142;-21.912;2022-11-20T16:23:13;6.18;;;1.67;;
47225;SDS011;32965;64.142;-21.912;2022-11-20T16:25:40;5.93;;;1.40;;
47225;SDS011;32965;64.142;-21.912;2022-11-20T16:28:07;7.50;;;1.40;;